Time;durP1;ratioP1;P1;durP2;ratioP2;P2;SDS_P1;SDS_P2;PMS_P1;PMS_P2;Temp;Humidity;BMP_temperature;BMP_pressure;BME280_temperature;BME280_humidity;BME280_pressure;Samples;Min_cycle;Max_cycle;Signal;HPM_P1;HPM_P2
2020/12/10 00:01:09;;;;;;;82.47;23.63;;;2.00;99.90;;;2.76;87.33;100758.94;5077036;28;20224;-71
2020/12/10 00:03:35;;;;;;;68.27;21.30;;;2.00;99.90;;;2.78;87.13;100759.81;5076947;28;20192;-71
2020/12/10 00:06:02;;;;;;;69.47;21.80;;;2.00;99.90;;;2.79;87.30;100744.28;5079341;28;20557;-71
2020/12/10 00:08:28;;;;;;;59.03;19.10;;;2.00;99.90;;;2.80;87.31;100745.16;5078576;28;20191;-71
2020/12/10 00:10:55;;;;;;;77.17;24.37;;;2.00;99.90;;;2.77;86.89;100751.19;5079013;28;20216;-70
2020/12/10 00:13:21;;;;;;;76.70;24.33;;;2.00;99.90;;;2.73;87.17;100744.31;5079834;28;20245;-71
2020/12/10 00:15:48;;;;;;;71.23;23.37;;;2.00;99.90;;;2.74;87.44;100745.19;5078510;28;20180;-71
2020/12/10 00:18:15;;;;;;;78.70;22.00;;;2.00;99.90;;;2.75;87.72;100754.66;5077414;28;20188;-71
2020/12/10 00:20:41;;;;;;;79.67;23.47;;;2.00;99.90;;;2.75;87.67;100742.59;5077426;28;20669;-71
2020/12/10 00:23:07;;;;;;;76.60;22.87;;;2.00;99.90;;;2.80;87.42;100752.91;5076503;28;20200;-70
2020/12/10 00:25:33;;;;;;;80.40;22.83;;;2.00;99.90;;;2.82;87.43;100753.72;5078288;28;20192;-70
2020/12/10 00:28:00;;;;;;;67.93;23.67;;;2.00;99.90;;;2.79;87.08;100748.59;5078810;28;20192;-70
2020/12/10 00:30:26;;;;;;;79.93;24.50;;;2.00;99.90;;;2.72;86.95;100752.94;5077912;28;20218;-71
2020/12/10 00:32:53;;;;;;;88.33;24.97;;;2.00;99.90;;;2.67;87.26;100754.69;5077754;28;20184;-70
2020/12/10 00:35:19;;;;;;;79.97;24.50;;;2.00;99.90;;;2.65;87.41;100745.25;5076344;28;20187;-71
2020/12/10 00:37:45;;;;;;;77.20;23.33;;;1.90;99.90;;;2.64;87.39;100744.38;5079500;28;20188;-72
2020/12/10 00:40:12;;;;;;;84.43;23.97;;;1.90;99.90;;;2.64;87.38;100749.53;5076149;28;20223;-70
2020/12/10 00:42:38;;;;;;;76.07;23.37;;;1.90;99.90;;;2.58;87.50;100752.13;5078843;28;20554;-71
2020/12/10 00:45:05;;;;;;;69.23;21.97;;;1.80;99.90;;;2.55;87.52;100757.31;5076627;28;20184;-70
2020/12/10 00:47:31;;;;;;;76.10;23.47;;;1.80;99.90;;;2.51;87.59;100751.31;5081961;28;20204;-70
2020/12/10 00:49:58;;;;;;;74.27;21.10;;;1.80;99.90;;;2.47;87.81;100757.38;5086211;28;20209;-71
2020/12/10 00:52:27;;;;;;;79.47;23.53;;;1.70;99.90;;;2.47;87.91;100757.38;5105681;28;20223;-69
2020/12/10 00:54:58;;;;;;;83.73;24.97;;;1.70;99.90;;;2.47;88.18;100757.38;5086186;28;20237;-70
2020/12/10 00:57:29;;;;;;;82.47;24.70;;;1.70;99.90;;;2.47;87.83;100757.38;5077280;28;20257;-71
2020/12/10 00:59:55;;;;;;;84.20;22.77;;;1.70;99.90;;;2.51;87.90;100758.22;5078225;28;20204;-70
2020/12/10 01:02:21;;;;;;;88.67;23.87;;;1.70;99.90;;;2.49;87.95;100757.38;5073525;28;20219;-73
2020/12/10 01:04:47;;;;;;;89.97;24.83;;;1.70;99.90;;;2.46;88.13;100755.63;5086780;28;20200;-71
2020/12/10 01:07:14;;;;;;;89.17;24.67;;;1.70;99.90;;;2.48;88.42;100753.91;5074017;28;20242;-70
2020/12/10 01:09:41;;;;;;;78.63;22.40;;;1.70;99.90;;;2.47;87.99;100754.78;5089426;28;20621;-71
2020/12/10 01:12:07;;;;;;;84.70;25.07;;;1.70;99.90;;;2.44;87.96;100749.63;5073905;28;20617;-70
2020/12/10 01:14:34;;;;;;;78.10;22.33;;;1.70;99.90;;;2.44;88.07;100747.03;5090033;28;20195;-70
2020/12/10 01:17:02;;;;;;;97.37;24.13;;;1.70;99.90;;;2.47;88.27;100747.03;5074977;28;20584;-70
2020/12/10 01:19:29;;;;;;;82.13;22.93;;;1.70;99.90;;;2.51;88.16;100747.91;5073543;28;20207;-70
2020/12/10 01:21:55;;;;;;;74.60;22.93;;;1.70;99.90;;;2.52;88.11;100749.59;5073812;28;20291;-70
2020/12/10 01:24:22;;;;;;;85.83;22.57;;;1.70;99.90;;;2.51;88.06;100740.97;5073612;28;20185;-70
2020/12/10 01:26:48;;;;;;;81.63;23.33;;;1.70;99.90;;;2.50;87.98;100741.88;5073681;28;20545;-70
2020/12/10 01:29:14;;;;;;;74.23;21.67;;;1.70;99.90;;;2.51;88.14;100747.91;5073158;28;20184;-70
2020/12/10 01:31:41;;;;;;;75.50;23.50;;;1.70;99.90;;;2.48;87.41;100738.44;5073258;28;20626;-70
2020/12/10 01:34:07;;;;;;;72.80;23.07;;;1.70;99.90;;;2.46;87.39;100740.16;5073438;28;20176;-70
2020/12/10 01:36:33;;;;;;;72.37;20.40;;;1.60;99.90;;;2.44;87.31;100736.72;5072151;28;20250;-70
2020/12/10 01:39:00;;;;;;;72.97;22.60;;;1.60;99.90;;;2.47;87.41;100736.72;5072925;28;20694;-70
2020/12/10 01:41:33;;;;;;;77.63;23.17;;;1.70;99.90;;;2.49;87.50;100724.63;5073419;28;20216;-70
2020/12/10 01:44:03;;;;;;;83.10;22.93;;;1.70;99.90;;;2.49;87.54;100714.31;5072040;28;20195;-70
2020/12/10 01:46:29;;;;;;;79.43;21.07;;;1.70;99.90;;;2.45;87.52;100717.78;5072148;28;20196;-70
2020/12/10 01:48:55;;;;;;;82.43;25.37;;;1.70;99.90;;;2.39;87.22;100716.97;5072968;28;20192;-70
2020/12/10 01:51:22;;;;;;;85.80;23.73;;;1.60;99.90;;;2.36;87.22;100707.50;5088551;28;20208;-70
2020/12/10 01:53:48;;;;;;;77.80;23.13;;;1.60;99.90;;;2.37;87.67;100706.66;5072882;28;20197;-70
2020/12/10 01:56:16;;;;;;;80.77;22.83;;;1.60;99.90;;;2.39;87.76;100707.47;5072892;28;20283;-70
2020/12/10 01:58:43;;;;;;;77.13;20.27;;;1.60;99.90;;;2.37;87.64;100687.72;5088397;28;20231;-70
2020/12/10 02:01:10;;;;;;;75.87;22.07;;;1.50;99.90;;;2.31;87.60;100688.59;5071408;28;20231;-71
2020/12/10 02:03:36;;;;;;;87.67;22.80;;;1.50;99.90;;;2.27;87.40;100686.03;5072778;28;20180;-70
2020/12/10 02:06:02;;;;;;;68.73;20.80;;;1.50;99.90;;;2.25;87.82;100691.22;5071285;28;20257;-70
2020/12/10 02:08:29;;;;;;;83.57;22.77;;;1.50;99.90;;;2.25;87.64;100673.16;5072493;28;20219;-70
2020/12/10 02:10:55;;;;;;;74.40;21.53;;;1.50;99.90;;;2.24;88.17;100666.25;5072336;28;20208;-70
2020/12/10 02:13:21;;;;;;;80.10;22.37;;;1.50;99.90;;;2.18;87.68;100661.13;5072424;28;20196;-71
2020/12/10 02:15:49;;;;;;;93.53;24.30;;;1.40;99.90;;;2.14;87.98;100666.31;5069356;28;20586;-71
2020/12/10 02:18:16;;;;;;;81.70;22.70;;;1.40;99.90;;;2.12;88.12;100656.03;5072334;28;20192;-70
2020/12/10 02:20:43;;;;;;;76.87;18.80;;;1.30;99.90;;;2.19;88.32;100667.16;5071952;28;20212;-70
2020/12/10 02:23:12;;;;;;;93.37;22.03;;;1.40;99.90;;;2.20;88.38;100649.09;5072358;28;20184;-70
2020/12/10 02:25:39;;;;;;;73.43;21.33;;;1.40;99.90;;;2.20;87.94;100645.66;5071510;28;20207;-70
2020/12/10 02:28:11;;;;;;;86.73;22.50;;;1.40;99.90;;;2.11;87.94;100653.44;5070709;28;20200;-71
2020/12/10 02:30:38;;;;;;;79.67;22.10;;;1.30;99.90;;;2.06;88.19;100644.88;5087789;28;20219;-70
2020/12/10 02:33:07;;;;;;;74.67;21.20;;;1.30;99.90;;;2.07;88.39;100650.03;5071599;28;20232;-70
2020/12/10 02:35:36;;;;;;;70.40;20.40;;;1.30;99.90;;;2.10;88.74;100657.75;5071723;28;20192;-70
2020/12/10 02:38:06;;;;;;;87.70;21.10;;;1.40;99.90;;;2.12;88.67;100652.56;5071642;28;20184;-70
2020/12/10 02:40:37;;;;;;;72.90;20.63;;;1.40;99.90;;;2.16;88.90;100649.97;5070541;28;20231;-70
2020/12/10 02:43:03;;;;;;;77.83;21.40;;;1.40;99.90;;;2.23;88.67;100648.19;5072113;28;20580;-70
2020/12/10 02:45:30;;;;;;;77.47;21.43;;;1.40;99.90;;;2.25;88.58;100647.34;5071147;28;20192;-70
2020/12/10 02:47:57;;;;;;;69.80;20.17;;;1.40;99.90;;;2.26;88.42;100641.31;5087247;28;20206;-69
2020/12/10 02:50:24;;;;;;;86.60;23.03;;;1.50;99.90;;;2.25;88.06;100642.19;5071507;28;20208;-70
2020/12/10 02:52:51;;;;;;;90.23;22.27;;;1.40;99.90;;;2.23;88.21;100645.63;5087309;28;20581;-70
2020/12/10 02:55:17;;;;;;;88.37;22.87;;;1.40;99.90;;;2.14;88.16;100650.84;5070880;28;20195;-70
2020/12/10 02:57:44;;;;;;;70.37;21.23;;;1.40;99.90;;;2.15;88.12;100640.53;5071178;28;20203;-70
2020/12/10 03:00:11;;;;;;;84.67;23.37;;;1.40;99.90;;;2.13;88.21;100644.81;5071151;28;20207;-71
2020/12/10 03:02:39;;;;;;;77.37;22.83;;;1.40;99.90;;;2.15;88.45;100656.00;5071568;28;20184;-71
2020/12/10 03:05:06;;;;;;;87.10;22.87;;;1.40;99.90;;;2.13;88.42;100657.72;5071735;28;20191;-70
2020/12/10 03:07:33;;;;;;;87.27;22.47;;;1.30;99.90;;;2.14;88.39;100646.53;5071440;28;20656;-70
2020/12/10 03:09:59;;;;;;;83.27;22.67;;;1.40;99.90;;;2.14;88.51;100649.09;5069981;28;20219;-70
2020/12/10 03:12:26;;;;;;;85.20;22.60;;;1.40;99.90;;;2.19;88.52;100656.84;5069953;28;20184;-70
2020/12/10 03:14:53;;;;;;;71.80;22.73;;;1.40;99.90;;;2.25;88.71;100655.09;5067596;28;20609;-71
2020/12/10 03:17:19;;;;;;;80.17;22.87;;;1.50;99.90;;;2.29;88.45;100654.19;5071588;28;20218;-70
2020/12/10 03:19:45;;;;;;;80.03;22.90;;;1.50;99.90;;;2.28;88.33;100644.75;5069996;28;20184;-70
2020/12/10 03:22:14;;;;;;;78.17;21.33;;;1.50;99.90;;;2.24;88.12;100650.78;5071206;28;20215;-71
2020/12/10 03:24:41;;;;;;;94.43;23.23;;;1.50;99.90;;;2.22;88.16;100642.22;5071536;28;20194;-71
2020/12/10 03:27:08;;;;;;;75.60;21.50;;;1.50;99.90;;;2.23;88.10;100643.03;5071453;28;20188;-71
2020/12/10 03:29:35;;;;;;;73.67;21.67;;;1.50;99.90;;;2.25;88.09;100637.03;5071135;28;20196;-70
2020/12/10 03:32:04;;;;;;;92.40;22.43;;;1.50;99.90;;;2.24;88.08;100635.28;5071414;28;20309;-70
2020/12/10 03:34:31;;;;;;;77.97;19.93;;;1.50;99.90;;;2.22;88.06;100633.59;5071858;28;20851;-71
2020/12/10 03:37:00;;;;;;;97.10;22.27;;;1.50;99.90;;;2.23;87.91;100627.56;5071984;28;20195;-70
2020/12/10 03:39:29;;;;;;;79.57;20.87;;;1.50;99.90;;;2.24;88.21;100624.97;5071284;28;20180;-70
2020/12/10 03:41:58;;;;;;;76.43;21.57;;;1.50;99.90;;;2.16;87.47;100621.56;5071252;28;20220;-70
2020/12/10 03:44:25;;;;;;;64.87;18.90;;;1.40;99.90;;;2.12;87.72;100614.75;5071608;28;20199;-70
2020/12/10 03:46:52;;;;;;;63.57;18.70;;;1.40;99.90;;;2.08;88.03;100613.03;5074169;28;20199;-70
2020/12/10 03:49:19;;;;;;;63.63;19.03;;;1.30;99.90;;;2.07;87.99;100613.91;5085926;28;20552;-69
2020/12/10 03:51:46;;;;;;;63.27;18.47;;;1.30;99.90;;;2.07;87.93;100605.31;5078972;28;20238;-70
2020/12/10 03:54:12;;;;;;;70.37;20.07;;;1.40;99.90;;;2.07;88.19;100611.31;5071318;28;20648;-70
2020/12/10 03:56:39;;;;;;;76.77;21.50;;;1.30;99.90;;;2.04;88.31;100608.72;5070707;28;20192;-70
2020/12/10 03:59:06;;;;;;;70.47;19.97;;;1.30;99.90;;;2.05;88.17;100602.72;5070865;28;20184;-70
2020/12/10 04:01:33;;;;;;;76.00;21.13;;;1.30;99.90;;;2.06;88.11;100607.00;5069476;28;20688;-70
2020/12/10 04:04:01;;;;;;;82.60;21.17;;;1.30;99.90;;;2.07;88.14;100600.13;5071307;28;20200;-69
2020/12/10 04:06:28;;;;;;;79.17;21.57;;;1.30;99.90;;;2.04;88.49;100603.56;5071217;28;20192;-71
2020/12/10 04:08:54;;;;;;;75.10;20.30;;;1.30;99.90;;;2.01;88.16;100620.81;5071229;28;20192;-70
2020/12/10 04:11:21;;;;;;;70.30;20.10;;;1.30;99.90;;;1.95;87.99;100620.81;5076444;28;20248;-70
2020/12/10 04:13:47;;;;;;;65.33;18.40;;;1.20;99.90;;;1.93;88.42;100613.09;5075708;28;20184;-70
2020/12/10 04:16:14;;;;;;;65.97;18.87;;;1.20;99.90;;;1.94;88.47;100619.13;5071986;28;20196;-71
2020/12/10 04:18:43;;;;;;;61.77;15.63;;;1.20;99.90;;;1.93;88.29;100605.38;5071046;28;20204;-70
2020/12/10 04:21:12;;;;;;;64.17;17.97;;;1.20;99.90;;;1.95;88.39;100613.09;5071913;28;20224;-71
2020/12/10 04:23:40;;;;;;;59.97;19.53;;;1.20;99.90;;;1.95;88.60;100616.53;5072095;28;20567;-70
2020/12/10 04:26:06;;;;;;;72.70;20.30;;;1.20;99.90;;;1.99;88.32;100617.38;5073087;28;20668;-69
2020/12/10 04:28:33;;;;;;;69.10;19.47;;;1.30;99.90;;;2.01;88.34;100601.03;5071904;28;20184;-70
2020/12/10 04:30:59;;;;;;;70.57;19.03;;;1.30;99.90;;;2.05;88.20;100612.19;5071942;28;20582;-70
2020/12/10 04:33:25;;;;;;;78.50;20.97;;;1.30;99.90;;;2.03;88.23;100609.63;5071846;28;20203;-70
2020/12/10 04:35:52;;;;;;;65.73;20.53;;;1.30;99.90;;;1.99;88.19;100607.91;5064692;28;20560;-70
2020/12/10 04:38:19;;;;;;;79.97;22.83;;;1.30;99.90;;;2.00;88.33;100601.03;5072127;28;20266;-71
2020/12/10 04:40:46;;;;;;;71.93;20.40;;;1.30;99.90;;;1.96;88.24;100604.50;5072161;28;20681;-70
2020/12/10 04:43:14;;;;;;;59.80;18.97;;;1.30;99.90;;;1.92;88.39;100597.63;5072270;28;20176;-70
2020/12/10 04:45:41;;;;;;;64.23;19.67;;;1.20;99.90;;;1.87;88.51;100607.97;5073493;28;20190;-69
2020/12/10 04:48:07;;;;;;;73.57;20.33;;;1.20;99.90;;;1.85;88.48;100614.88;5072891;28;20215;-70
2020/12/10 04:50:38;;;;;;;76.57;20.07;;;1.10;99.90;;;1.85;88.62;100621.72;5076353;28;20215;-70
2020/12/10 04:53:05;;;;;;;59.93;17.80;;;1.10;99.90;;;1.84;88.82;100618.28;5092201;28;20207;-70
2020/12/10 04:55:32;;;;;;;65.03;19.30;;;1.10;99.90;;;1.84;88.83;100618.28;5090516;28;20196;-70
2020/12/10 04:58:00;;;;;;;74.57;21.43;;;1.10;99.90;;;1.83;89.19;100621.75;5090850;28;20192;-70
2020/12/10 05:00:28;;;;;;;70.87;18.93;;;1.10;99.90;;;1.85;89.11;100614.88;5075078;28;20204;-70
2020/12/10 05:02:55;;;;;;;71.70;17.97;;;1.10;99.90;;;1.87;89.26;100617.44;5092136;28;20230;-70
2020/12/10 05:05:27;;;;;;;80.30;21.37;;;1.10;99.90;;;1.87;89.14;100613.13;5077434;28;20188;-70
2020/12/10 05:07:55;;;;;;;76.20;19.63;;;1.20;99.90;;;1.89;89.24;100610.56;5074731;28;20183;-70
2020/12/10 05:10:22;;;;;;;81.40;20.60;;;1.20;99.90;;;1.93;89.28;100622.56;5072531;28;20216;-70
2020/12/10 05:12:49;;;;;;;79.73;20.70;;;1.20;99.90;;;2.00;89.42;100627.69;5089513;28;20196;-70
2020/12/10 05:15:31;;;;;;;74.00;19.43;;;1.20;99.90;;;2.03;89.25;100624.22;5089702;28;20662;-70
2020/12/10 05:18:04;;;;;;;71.37;18.97;;;1.30;99.90;;;2.01;88.92;100619.06;5073968;28;20540;-70
2020/12/10 05:20:43;;;;;;;65.77;20.63;;;1.30;99.90;;;1.99;89.05;100615.63;5073765;28;20228;-70
2020/12/10 05:23:09;;;;;;;69.63;18.23;;;1.30;99.90;;;1.98;88.79;100625.97;5073885;28;20263;-70
2020/12/10 05:25:50;;;;;;;66.53;20.80;;;1.20;99.90;;;1.92;88.77;100615.69;5069223;28;20203;-71
2020/12/10 05:28:17;;;;;;;72.53;20.30;;;1.20;99.90;;;1.89;88.77;100624.28;5066070;28;20191;-70
2020/12/10 05:30:46;;;;;;;75.90;20.07;;;1.20;99.90;;;1.91;89.24;100621.72;5089146;28;20684;-70
2020/12/10 05:33:16;;;;;;;73.37;20.83;;;1.20;99.90;;;1.88;88.90;100620.00;5089463;28;20617;-70
2020/12/10 05:35:42;;;;;;;70.80;19.43;;;1.10;99.90;;;1.85;88.88;100620.03;5073688;28;20184;-71
2020/12/10 05:38:12;;;;;;;77.07;19.57;;;1.10;99.90;;;1.83;88.83;100626.91;5073180;28;20653;-70
2020/12/10 05:40:39;;;;;;;77.87;20.20;;;1.10;99.90;;;1.82;88.99;100625.19;5073265;28;20207;-71
2020/12/10 05:43:07;;;;;;;73.43;21.73;;;1.10;99.90;;;1.80;88.95;100629.50;5073444;28;20185;-71
2020/12/10 05:45:38;;;;;;;78.00;20.97;;;1.10;99.90;;;1.83;89.43;100621.75;5088983;28;20192;-70
2020/12/10 05:48:06;;;;;;;85.97;21.73;;;1.10;99.90;;;1.85;89.32;100617.44;5072368;28;20203;-70
2020/12/10 05:50:34;;;;;;;70.53;20.00;;;1.10;99.90;;;1.84;89.32;100618.28;5073115;28;20692;-70
2020/12/10 05:53:09;;;;;;;77.30;19.63;;;1.10;99.90;;;1.82;89.07;100626.91;5088824;28;20235;-71
2020/12/10 05:55:38;;;;;;;68.00;19.50;;;1.10;99.90;;;1.81;89.26;100622.63;5072859;28;20313;-70
2020/12/10 05:58:06;;;;;;;70.90;17.10;;;1.10;99.90;;;1.81;89.47;100623.47;5072605;28;20661;-70
2020/12/10 06:00:33;;;;;;;70.93;18.03;;;1.10;99.90;;;1.83;89.27;100626.03;5073212;28;20212;-71
2020/12/10 06:03:00;;;;;;;64.80;16.40;;;1.10;99.90;;;1.84;89.21;100626.03;5071827;28;20243;-70
2020/12/10 06:05:28;;;;;;;65.30;17.43;;;1.10;99.90;;;1.86;89.04;100626.88;5088450;28;20256;-70
2020/12/10 06:08:07;;;;;;;65.50;18.10;;;1.10;99.90;;;1.84;89.12;100620.88;5089058;28;20652;-71
2020/12/10 06:10:38;;;;;;;55.30;17.03;;;1.10;99.90;;;1.80;88.78;100628.63;5075842;28;20204;-70
2020/12/10 06:13:05;;;;;;;60.27;16.57;;;1.10;99.90;;;1.76;88.71;100630.34;5073885;28;20200;-70
2020/12/10 06:15:33;;;;;;;70.10;19.53;;;1.00;99.90;;;1.72;89.10;100628.69;5088533;28;20188;-71
2020/12/10 06:18:08;;;;;;;70.37;17.33;;;1.00;99.90;;;1.73;89.00;100634.66;5069160;28;20608;-69
2020/12/10 06:20:39;;;;;;;67.40;17.63;;;1.00;99.90;;;1.72;89.26;100628.69;5072299;28;20229;-70
2020/12/10 06:23:35;;;;;;;82.70;19.97;;;1.00;99.90;;;1.76;89.37;100640.66;5088212;28;20200;-71
2020/12/10 06:26:35;;;;;;;67.63;17.13;;;1.10;99.90;;;1.78;89.29;100638.94;5072513;28;20181;-71
2020/12/10 06:29:22;;;;;;;58.97;16.40;;;1.10;99.90;;;1.80;89.30;100642.38;5072318;28;20550;-70
2020/12/10 06:32:02;;;;;;;72.27;18.90;;;1.10;99.90;;;1.84;89.32;100643.25;5072347;28;20305;-70
2020/12/10 06:34:38;;;;;;;56.63;16.63;;;1.10;99.90;;;1.86;89.17;100641.53;5072784;28;20207;-70
2020/12/10 06:37:21;;;;;;;67.83;18.87;;;1.10;99.90;;;1.90;89.22;100641.50;5071133;28;20196;-71
2020/12/10 06:39:53;;;;;;;55.83;15.60;;;1.20;99.90;;;1.91;89.11;100645.78;5072210;28;20611;-70
2020/12/10 06:42:19;;;;;;;59.60;18.90;;;1.20;99.90;;;1.89;89.23;100641.50;5088182;28;20692;-70
2020/12/10 06:44:46;;;;;;;74.70;19.07;;;1.20;99.90;;;1.88;89.29;100644.94;5094896;28;20203;-69
2020/12/10 06:47:13;;;;;;;66.03;17.90;;;1.20;99.90;;;1.89;89.30;100649.25;5083734;28;20196;-70
2020/12/10 06:49:40;;;;;;;73.03;16.57;;;1.20;99.90;;;1.92;89.46;100642.34;5079892;28;20211;-70
2020/12/10 06:52:16;;;;;;;71.40;18.50;;;1.20;99.90;;;1.95;89.53;100637.16;5071806;28;20298;-71
2020/12/10 06:55:13;;;;;;;69.50;19.80;;;1.30;99.90;;;1.96;89.16;100635.47;5069683;28;20770;-71
2020/12/10 06:58:06;;;;;;;64.20;18.70;;;1.30;99.90;;;1.96;89.04;100632.88;5009745;28;20288;-71
2020/12/10 07:00:44;;;;;;;64.50;17.73;;;1.30;99.90;;;1.97;89.10;100632.88;5068406;28;20220;-70
2020/12/10 07:03:16;;;;;;;63.63;16.87;;;1.30;99.90;;;1.99;89.12;100636.28;5071753;28;20208;-71
2020/12/10 07:05:42;;;;;;;66.30;18.30;;;1.30;99.90;;;1.98;89.26;100644.03;5087253;28;20228;-71
2020/12/10 07:08:10;;;;;;;74.03;19.57;;;1.30;99.90;;;1.96;89.23;100638.88;5070961;28;20234;-71
2020/12/10 07:10:44;;;;;;;62.63;16.93;;;1.30;99.90;;;1.95;89.08;100642.34;5071841;28;20617;-70
2020/12/10 07:13:11;;;;;;;73.37;20.30;;;1.30;99.90;;;1.96;89.28;100638.03;5071647;28;20674;-71
2020/12/10 07:15:37;;;;;;;86.87;20.43;;;1.30;99.90;;;1.93;89.16;100638.91;5072645;28;20193;-70
2020/12/10 07:18:05;;;;;;;72.63;18.57;;;1.20;99.90;;;1.94;89.14;100634.59;5086924;28;20241;-70
2020/12/10 07:20:33;;;;;;;74.33;19.17;;;1.20;99.90;;;1.93;89.51;100633.72;5071368;28;20582;-71
2020/12/10 07:23:02;;;;;;;86.00;20.77;;;1.30;99.90;;;1.94;89.51;100630.28;5071116;28;20556;-70
2020/12/10 07:25:30;;;;;;;82.07;20.30;;;1.30;99.90;;;1.97;89.53;100630.28;5071278;28;20192;-70
2020/12/10 07:27:59;;;;;;;82.13;21.53;;;1.30;99.90;;;2.01;89.53;100626.81;5071168;28;20196;-70
2020/12/10 07:30:27;;;;;;;74.67;19.30;;;1.30;99.90;;;2.01;89.26;100623.41;5070087;28;20207;-71
2020/12/10 07:32:55;;;;;;;70.67;19.00;;;1.30;99.90;;;2.00;89.56;100627.69;5087260;28;20184;-71
2020/12/10 07:35:32;;;;;;;73.10;19.80;;;1.30;99.90;;;2.01;89.27;100623.41;5071591;28;20216;-71
2020/12/10 07:38:09;;;;;;;76.97;20.93;;;1.30;99.90;;;2.01;89.26;100631.97;5069893;28;20200;-71
2020/12/10 07:40:35;;;;;;;66.40;19.17;;;1.30;99.90;;;2.05;89.27;100635.41;5086804;28;20242;-70
2020/12/10 07:43:05;;;;;;;72.47;18.90;;;1.30;99.90;;;2.07;89.31;100628.50;5071223;28;20629;-71
2020/12/10 07:45:31;;;;;;;78.30;20.83;;;1.40;99.90;;;2.08;89.05;100638.81;5069603;28;20196;-71
2020/12/10 07:48:00;;;;;;;78.37;20.33;;;1.40;99.90;;;2.08;89.02;100631.09;5070938;28;20196;-70
2020/12/10 07:50:29;;;;;;;84.50;22.67;;;1.40;99.90;;;2.07;89.14;100625.94;5070900;28;20208;-71
2020/12/10 07:52:58;;;;;;;73.77;20.43;;;1.40;99.90;;;2.05;88.94;100622.50;5069675;28;20198;-71
2020/12/10 07:55:28;;;;;;;77.10;20.93;;;1.30;99.90;;;2.05;88.83;100630.25;5062594;28;20259;-71
2020/12/10 07:58:07;;;;;;;81.97;19.83;;;1.30;99.90;;;2.05;88.91;100631.09;5070290;28;20188;-71
2020/12/10 08:00:35;;;;;;;74.40;19.73;;;1.40;99.90;;;2.09;89.01;100632.78;5070673;28;20688;-70
2020/12/10 08:03:21;;;;;;;77.60;21.53;;;1.40;99.90;;;2.13;88.96;100633.63;5070612;28;20188;-71
2020/12/10 08:06:03;;;;;;;63.23;19.40;;;1.40;99.90;;;2.17;88.88;100632.75;5070771;28;20196;-72
2020/12/10 08:08:34;;;;;;;79.47;19.83;;;1.40;99.90;;;2.22;89.15;100625.84;5069149;28;20283;-71
2020/12/10 08:11:13;;;;;;;86.27;20.37;;;1.50;99.90;;;2.21;88.70;100624.16;5086172;28;20217;-71
2020/12/10 08:13:55;;;;;;;71.90;18.40;;;1.50;99.90;;;2.16;88.76;100618.16;5069607;28;20192;-71
2020/12/10 08:16:21;;;;;;;78.03;19.27;;;1.50;99.90;;;2.14;88.82;100612.16;5069394;28;20196;-70
2020/12/10 08:18:47;;;;;;;65.43;19.53;;;1.50;99.90;;;2.12;88.38;100612.16;5070489;28;20189;-71
2020/12/10 08:21:31;;;;;;;87.17;22.03;;;1.50;99.90;;;2.11;88.28;100613.00;5074023;28;20224;-71
2020/12/10 08:23:57;;;;;;;90.70;20.27;;;1.40;99.90;;;2.13;88.55;100613.00;5090060;28;20672;-71
2020/12/10 08:26:23;;;;;;;76.67;21.53;;;1.40;99.90;;;2.12;88.58;100613.88;5074057;28;20196;-68
2020/12/10 08:28:56;;;;;;;95.23;21.57;;;1.40;99.90;;;2.14;88.30;100604.41;5074933;28;20192;-71
2020/12/10 08:31:25;;;;;;;86.50;21.50;;;1.40;99.90;;;2.12;88.48;100604.41;5074731;28;20571;-70
2020/12/10 08:33:52;;;;;;;79.93;20.00;;;1.40;99.90;;;2.08;88.53;100612.16;5090090;28;20675;-71
2020/12/10 08:36:32;;;;;;;81.73;20.33;;;1.40;99.90;;;2.02;88.22;100602.75;5074320;28;20214;-71
2020/12/10 08:39:03;;;;;;;80.13;21.77;;;1.30;99.90;;;1.98;88.37;100595.88;5074419;28;20186;-71
2020/12/10 08:41:33;;;;;;;82.50;21.97;;;1.30;99.90;;;2.00;88.43;100599.31;5089714;28;20208;-71
2020/12/10 08:44:04;;;;;;;94.17;22.50;;;1.30;99.90;;;2.05;88.46;100604.44;5074051;28;20195;-71
2020/12/10 08:46:32;;;;;;;89.93;21.60;;;1.30;99.90;;;2.08;88.80;100601.84;5074117;28;20234;-71
2020/12/10 08:49:15;;;;;;;75.97;19.23;;;1.40;99.90;;;2.08;88.39;100607.88;5071689;28;20196;-71
2020/12/10 08:51:42;;;;;;;89.03;21.60;;;1.40;99.90;;;2.09;88.69;100601.81;5074055;28;20208;-71
2020/12/10 08:54:09;;;;;;;83.13;20.50;;;1.40;99.90;;;2.10;88.50;100606.13;5073818;28;20223;-71
2020/12/10 08:56:37;;;;;;;69.70;19.67;;;1.30;99.90;;;2.07;88.25;100595.84;5072998;28;20571;-71
2020/12/10 08:59:05;;;;;;;73.87;19.37;;;1.30;99.90;;;2.04;88.20;100605.31;5089419;28;20230;-70
2020/12/10 09:01:32;;;;;;;84.37;21.90;;;1.30;99.90;;;1.96;88.46;100602.75;5073954;28;20289;-70
2020/12/10 09:03:58;;;;;;;80.20;20.37;;;1.20;99.90;;;1.97;88.61;100595.91;5073912;28;20185;-70
2020/12/10 09:06:34;;;;;;;80.77;20.40;;;1.20;99.90;;;1.98;89.04;100595.88;5074389;28;20177;-69
2020/12/10 09:09:01;;;;;;;88.27;20.30;;;1.20;99.90;;;2.01;88.98;100601.03;5074770;28;20187;-70
2020/12/10 09:11:28;;;;;;;79.60;21.80;;;1.20;99.90;;;2.05;88.74;100595.00;5072664;28;20216;-71
2020/12/10 09:13:57;;;;;;;81.43;18.97;;;1.30;99.90;;;2.09;89.06;100604.41;5089436;28;20288;-72
2020/12/10 09:16:25;;;;;;;73.77;19.73;;;1.30;99.90;;;2.13;88.79;100606.13;5073653;28;20194;-70
2020/12/10 09:18:51;;;;;;;88.77;22.03;;;1.30;99.90;;;2.16;88.66;100603.50;5072714;28;20495;-70
2020/12/10 09:21:18;;;;;;;79.87;21.27;;;1.40;99.90;;;2.17;88.50;100602.66;5073270;28;20239;-71
2020/12/10 09:23:44;;;;;;;85.70;19.70;;;1.40;99.90;;;2.16;88.33;100595.78;5071171;28;20192;-71
2020/12/10 09:26:11;;;;;;;64.30;18.03;;;1.40;99.90;;;2.14;88.04;100594.91;5075619;28;20195;-71
2020/12/10 09:28:38;;;;;;;82.50;19.70;;;1.40;99.90;;;2.10;88.13;100595.81;5072887;28;20196;-69
2020/12/10 09:31:04;;;;;;;67.60;17.87;;;1.40;99.90;;;2.08;88.15;100591.53;5074562;28;20211;-71
2020/12/10 09:33:32;;;;;;;84.83;21.10;;;1.40;99.90;;;2.13;88.18;100594.94;5089940;28;20188;-71
2020/12/10 09:35:59;;;;;;;84.03;20.77;;;1.40;99.90;;;2.12;87.97;100599.25;5073233;28;20299;-70
2020/12/10 09:38:25;;;;;;;85.70;20.67;;;1.40;99.90;;;2.08;88.10;100600.13;5077348;28;20185;-70
2020/12/10 09:40:56;;;;;;;73.23;18.30;;;1.30;99.90;;;2.07;88.04;100587.25;5087138;28;20284;-71
2020/12/10 09:43:22;;;;;;;80.83;20.57;;;1.30;99.90;;;2.08;88.13;100582.06;5084959;28;20186;-71
2020/12/10 09:45:54;;;;;;;79.90;20.20;;;1.30;99.90;;;2.14;88.38;100581.19;5069530;28;20192;-70
2020/12/10 09:48:20;;;;;;;79.97;21.77;;;1.30;99.90;;;2.16;88.42;100585.44;5073290;28;20242;-71
2020/12/10 09:50:47;;;;;;;87.97;22.70;;;1.40;99.90;;;2.19;88.20;100589.75;5073765;28;20224;-71
2020/12/10 09:53:17;;;;;;;95.50;21.93;;;1.40;99.90;;;2.20;88.54;100586.28;5088460;28;20201;-71
2020/12/10 09:58:27;;;;;;;84.73;21.70;;;1.40;99.90;;;2.14;88.14;100582.03;5073366;28;20202;-71
2020/12/10 10:00:53;;;;;;;76.47;21.20;;;1.40;99.90;;;2.18;88.26;100581.16;5089741;28;20283;-71
2020/12/10 10:03:21;;;;;;;79.37;19.93;;;1.40;99.90;;;2.15;88.06;100577.72;5073500;28;20191;-71
2020/12/10 10:05:48;;;;;;;70.30;19.60;;;1.40;99.90;;;2.14;87.66;100581.19;5088869;28;20204;-70
2020/12/10 10:08:14;;;;;;;86.43;20.50;;;1.30;99.90;;;2.10;87.50;100593.25;5073061;28;20199;-71
2020/12/10 10:10:40;;;;;;;67.27;19.10;;;1.30;99.90;;;2.07;87.51;100594.97;5073512;28;20261;-70
2020/12/10 10:13:07;;;;;;;84.97;20.13;;;1.30;99.90;;;2.01;87.36;100584.72;5073373;28;20653;-71
2020/12/10 10:15:33;;;;;;;79.07;20.30;;;1.30;99.90;;;2.00;87.46;100591.59;5073507;28;20188;-71
2020/12/10 10:17:59;;;;;;;76.17;21.10;;;1.30;99.90;;;1.98;87.39;100592.44;5073183;28;20188;-71
2020/12/10 10:20:26;;;;;;;71.30;18.53;;;1.20;99.90;;;1.96;87.58;100583.88;5072748;28;20294;-71
2020/12/10 10:22:53;;;;;;;59.33;18.03;;;1.20;99.90;;;1.96;87.77;100587.28;5072967;28;20270;-71